sensor_id;sensor_type;location;lat;lon;timestamp;P1;durP1;ratioP1;P2;durP2;ratioP2
56457;SDS011;42360;42.918;12.366;2022-08-01T00:00:07;1.58;;;1.48;;
56457;SDS011;42360;42.918;12.366;2022-08-01T00:02:34;1.65;;;1.55;;
56457;SDS011;42360;42.918;12.366;2022-08-01T00:05:00;1.92;;;1.58;;
56457;SDS011;42360;42.918;12.366;2022-08-01T00:07:26;1.80;;;1.65;;
56457;SDS011;42360;42.918;12.366;2022-08-01T00:09:52;1.70;;;1.60;;
56457;SDS011;42360;42.918;12.366;2022-08-01T00:12:17;1.77;;;1.60;;
56457;SDS011;42360;42.918;12.366;2022-08-01T00:14:43;1.77;;;1.67;;
56457;SDS011;42360;42.918;12.366;2022-08-01T00:17:09;2.08;;;1.50;;
56457;SDS011;42360;42.918;12.366;2022-08-01T00:19:34;2.10;;;1.52;;
56457;SDS011;42360;42.918;12.366;2022-08-01T00:22:00;3.22;;;1.55;;
56457;SDS011;42360;42.918;12.366;2022-08-01T00:24:26;1.80;;;1.70;;
56457;SDS011;42360;42.918;12.366;2022-08-01T00:26:51;2.08;;;1.55;;
56457;SDS011;42360;42.918;12.366;2022-08-01T00:29:17;2.20;;;1.70;;
56457;SDS011;42360;42.918;12.366;2022-08-01T00:31:42;2.25;;;2.15;;
56457;SDS011;42360;42.918;12.366;2022-08-01T00:34:08;1.60;;;1.50;;
56457;SDS011;42360;42.918;12.366;2022-08-01T00:36:34;1.85;;;1.65;;
56457;SDS011;42360;42.918;12.366;2022-08-01T00:38:59;1.70;;;1.60;;
56457;SDS011;42360;42.918;12.366;2022-08-01T00:41:25;1.70;;;1.60;;
56457;SDS011;42360;42.918;12.366;2022-08-01T00:43:51;2.58;;;1.70;;
56457;SDS011;42360;42.918;12.366;2022-08-01T00:46:16;1.83;;;1.73;;
56457;SDS011;42360;42.918;12.366;2022-08-01T00:48:42;1.88;;;1.65;;
56457;SDS011;42360;42.918;12.366;2022-08-01T00:51:08;2.35;;;1.65;;
56457;SDS011;42360;42.918;12.366;2022-08-01T00:53:34;1.95;;;1.85;;
56457;SDS011;42360;42.918;12.366;2022-08-01T00:56:00;1.73;;;1.60;;
56457;SDS011;42360;42.918;12.366;2022-08-01T00:58:27;2.35;;;1.60;;
56457;SDS011;42360;42.918;12.366;2022-08-01T01:00:55;2.75;;;2.05;;
56457;SDS011;42360;42.918;12.366;2022-08-01T01:03:22;3.03;;;1.73;;
56457;SDS011;42360;42.918;12.366;2022-08-01T01:05:50;2.45;;;1.80;;
56457;SDS011;42360;42.918;12.366;2022-08-01T01:08:27;1.80;;;1.70;;
56457;SDS011;42360;42.918;12.366;2022-08-01T01:11:00;1.90;;;1.80;;
56457;SDS011;42360;42.918;12.366;2022-08-01T01:13:35;2.92;;;2.00;;
56457;SDS011;42360;42.918;12.366;2022-08-01T01:16:13;2.85;;;1.90;;
56457;SDS011;42360;42.918;12.366;2022-08-01T01:18:42;1.67;;;1.58;;
56457;SDS011;42360;42.918;12.366;2022-08-01T01:26:26;2.88;;;1.52;;
56457;SDS011;42360;42.918;12.366;2022-08-01T01:28:58;1.92;;;1.60;;
56457;SDS011;42360;42.918;12.366;2022-08-01T01:31:28;2.22;;;1.55;;
56457;SDS011;42360;42.918;12.366;2022-08-01T01:33:54;2.30;;;2.08;;
56457;SDS011;42360;42.918;12.366;2022-08-01T01:36:20;1.67;;;1.58;;
56457;SDS011;42360;42.918;12.366;2022-08-01T01:38:48;1.52;;;1.42;;
56457;SDS011;42360;42.918;12.366;2022-08-01T01:41:15;1.75;;;1.65;;
56457;SDS011;42360;42.918;12.366;2022-08-01T01:43:42;1.85;;;1.50;;
56457;SDS011;42360;42.918;12.366;2022-08-01T01:46:09;1.77;;;1.67;;
56457;SDS011;42360;42.918;12.366;2022-08-01T01:48:36;1.75;;;1.65;;
56457;SDS011;42360;42.918;12.366;2022-08-01T01:51:03;1.67;;;1.58;;
56457;SDS011;42360;42.918;12.366;2022-08-01T01:53:33;1.83;;;1.50;;
56457;SDS011;42360;42.918;12.366;2022-08-01T01:56:00;2.35;;;1.50;;
56457;SDS011;42360;42.918;12.366;2022-08-01T01:58:27;2.05;;;1.70;;
56457;SDS011;42360;42.918;12.366;2022-08-01T02:00:55;2.38;;;1.60;;
56457;SDS011;42360;42.918;12.366;2022-08-01T02:03:22;1.65;;;1.50;;
56457;SDS011;42360;42.918;12.366;2022-08-01T02:05:49;2.75;;;1.50;;
56457;SDS011;42360;42.918;12.366;2022-08-01T02:08:17;1.92;;;1.70;;
56457;SDS011;42360;42.918;12.366;2022-08-01T02:10:42;2.42;;;1.80;;
56457;SDS011;42360;42.918;12.366;2022-08-01T02:13:29;1.65;;;1.55;;
56457;SDS011;42360;42.918;12.366;2022-08-01T02:15:58;2.13;;;1.58;;
56457;SDS011;42360;42.918;12.366;2022-08-01T02:18:24;1.63;;;1.50;;
56457;SDS011;42360;42.918;12.366;2022-08-01T02:20:50;1.60;;;1.50;;
56457;SDS011;42360;42.918;12.366;2022-08-01T02:23:17;1.48;;;1.38;;
56457;SDS011;42360;42.918;12.366;2022-08-01T02:25:50;1.63;;;1.42;;
56457;SDS011;42360;42.918;12.366;2022-08-01T02:28:35;1.70;;;1.60;;
56457;SDS011;42360;42.918;12.366;2022-08-01T02:31:07;1.63;;;1.52;;
56457;SDS011;42360;42.918;12.366;2022-08-01T02:33:40;2.45;;;1.40;;
56457;SDS011;42360;42.918;12.366;2022-08-01T02:36:08;1.48;;;1.38;;
56457;SDS011;42360;42.918;12.366;2022-08-01T02:38:36;1.63;;;1.50;;
56457;SDS011;42360;42.918;12.366;2022-08-01T02:41:09;1.77;;;1.67;;
56457;SDS011;42360;42.918;12.366;2022-08-01T02:43:38;2.65;;;1.50;;
56457;SDS011;42360;42.918;12.366;2022-08-01T02:46:08;1.73;;;1.60;;
56457;SDS011;42360;42.918;12.366;2022-08-01T02:48:41;1.65;;;1.50;;
56457;SDS011;42360;42.918;12.366;2022-08-01T02:51:21;1.90;;;1.80;;
56457;SDS011;42360;42.918;12.366;2022-08-01T02:53:48;1.60;;;1.50;;
56457;SDS011;42360;42.918;12.366;2022-08-01T02:56:15;1.38;;;1.27;;
56457;SDS011;42360;42.918;12.366;2022-08-01T02:58:42;1.88;;;1.67;;
56457;SDS011;42360;42.918;12.366;2022-08-01T03:01:08;2.40;;;1.80;;
56457;SDS011;42360;42.918;12.366;2022-08-01T03:03:36;1.60;;;1.50;;
56457;SDS011;42360;42.918;12.366;2022-08-01T03:06:02;2.53;;;1.77;;
56457;SDS011;42360;42.918;12.366;2022-08-01T03:08:29;1.90;;;1.70;;
56457;SDS011;42360;42.918;12.366;2022-08-01T03:10:55;2.60;;;1.50;;
56457;SDS011;42360;42.918;12.366;2022-08-01T03:13:22;1.95;;;1.50;;
56457;SDS011;42360;42.918;12.366;2022-08-01T03:15:48;1.77;;;1.35;;
56457;SDS011;42360;42.918;12.366;2022-08-01T03:18:15;3.00;;;1.58;;
56457;SDS011;42360;42.918;12.366;2022-08-01T03:20:41;1.42;;;1.33;;
56457;SDS011;42360;42.918;12.366;2022-08-01T03:23:08;1.77;;;1.42;;
56457;SDS011;42360;42.918;12.366;2022-08-01T03:25:36;1.50;;;1.40;;
56457;SDS011;42360;42.918;12.366;2022-08-01T03:28:04;3.67;;;1.75;;
56457;SDS011;42360;42.918;12.366;2022-08-01T03:30:32;1.80;;;1.40;;
56457;SDS011;42360;42.918;12.366;2022-08-01T03:32:58;1.88;;;1.50;;
56457;SDS011;42360;42.918;12.366;2022-08-01T03:35:28;2.30;;;1.70;;
56457;SDS011;42360;42.918;12.366;2022-08-01T03:37:55;2.45;;;2.30;;
56457;SDS011;42360;42.918;12.366;2022-08-01T03:40:23;1.70;;;1.50;;
56457;SDS011;42360;42.918;12.366;2022-08-01T03:42:52;2.30;;;1.70;;
56457;SDS011;42360;42.918;12.366;2022-08-01T03:45:25;1.52;;;1.42;;
56457;SDS011;42360;42.918;12.366;2022-08-01T03:47:55;2.65;;;1.85;;
56457;SDS011;42360;42.918;12.366;2022-08-01T03:50:25;3.58;;;1.60;;
56457;SDS011;42360;42.918;12.366;2022-08-01T03:52:52;1.98;;;1.83;;
56457;SDS011;42360;42.918;12.366;2022-08-01T03:55:19;3.15;;;1.70;;
56457;SDS011;42360;42.918;12.366;2022-08-01T03:57:46;1.70;;;1.60;;
56457;SDS011;42360;42.918;12.366;2022-08-01T04:00:12;2.30;;;1.77;;
56457;SDS011;42360;42.918;12.366;2022-08-01T04:02:38;2.05;;;1.65;;
56457;SDS011;42360;42.918;12.366;2022-08-01T04:05:04;3.17;;;1.75;;
56457;SDS011;42360;42.918;12.366;2022-08-01T04:07:31;1.50;;;1.40;;
56457;SDS011;42360;42.918;12.366;2022-08-01T04:10:01;2.28;;;2.05;;
56457;SDS011;42360;42.918;12.366;2022-08-01T04:12:26;1.90;;;1.55;;
56457;SDS011;42360;42.918;12.366;2022-08-01T04:14:52;2.63;;;1.70;;
56457;SDS011;42360;42.918;12.366;2022-08-01T04:17:18;1.98;;;1.80;;
56457;SDS011;42360;42.918;12.366;2022-08-01T04:19:44;2.33;;;1.80;;
56457;SDS011;42360;42.918;12.366;2022-08-01T04:22:10;3.33;;;1.60;;
56457;SDS011;42360;42.918;12.366;2022-08-01T04:24:37;3.53;;;1.88;;
56457;SDS011;42360;42.918;12.366;2022-08-01T04:27:04;3.15;;;1.80;;
56457;SDS011;42360;42.918;12.366;2022-08-01T04:29:31;5.00;;;2.17;;
56457;SDS011;42360;42.918;12.366;2022-08-01T04:31:57;3.65;;;2.10;;
56457;SDS011;42360;42.918;12.366;2022-08-01T04:34:25;4.07;;;1.98;;
56457;SDS011;42360;42.918;12.366;2022-08-01T04:36:54;4.35;;;2.20;;
56457;SDS011;42360;42.918;12.366;2022-08-01T04:39:20;2.97;;;1.77;;
56457;SDS011;42360;42.918;12.366;2022-08-01T04:41:49;3.92;;;1.90;;
56457;SDS011;42360;42.918;12.366;2022-08-01T04:44:15;4.38;;;1.73;;
56457;SDS011;42360;42.918;12.366;2022-08-01T04:46:41;2.33;;;2.13;;
56457;SDS011;42360;42.918;12.366;2022-08-01T04:49:07;1.90;;;1.77;;
56457;SDS011;42360;42.918;12.366;2022-08-01T04:51:34;2.00;;;1.63;;
56457;SDS011;42360;42.918;12.366;2022-08-01T04:54:00;4.90;;;2.05;;
56457;SDS011;42360;42.918;12.366;2022-08-01T04:56:26;2.13;;;1.83;;
56457;SDS011;42360;42.918;12.366;2022-08-01T04:58:52;2.85;;;1.90;;
56457;SDS011;42360;42.918;12.366;2022-08-01T05:01:38;2.08;;;1.80;;
56457;SDS011;42360;42.918;12.366;2022-08-01T05:04:03;4.85;;;1.90;;
56457;SDS011;42360;42.918;12.366;2022-08-01T05:06:29;5.00;;;2.30;;
56457;SDS011;42360;42.918;12.366;2022-08-01T05:08:55;2.88;;;2.08;;
56457;SDS011;42360;42.918;12.366;2022-08-01T05:11:20;3.92;;;2.22;;
56457;SDS011;42360;42.918;12.366;2022-08-01T05:13:47;3.47;;;1.95;;
56457;SDS011;42360;42.918;12.366;2022-08-01T05:16:13;3.75;;;1.88;;
56457;SDS011;42360;42.918;12.366;2022-08-01T05:18:39;2.70;;;1.85;;
56457;SDS011;42360;42.918;12.366;2022-08-01T05:21:04;3.47;;;2.03;;
56457;SDS011;42360;42.918;12.366;2022-08-01T05:23:30;4.22;;;1.85;;
56457;SDS011;42360;42.918;12.366;2022-08-01T05:25:55;3.25;;;2.08;;
56457;SDS011;42360;42.918;12.366;2022-08-01T05:28:21;4.60;;;2.08;;
56457;SDS011;42360;42.918;12.366;2022-08-01T05:30:47;2.90;;;1.80;;
56457;SDS011;42360;42.918;12.366;2022-08-01T05:33:12;4.32;;;2.28;;
56457;SDS011;42360;42.918;12.366;2022-08-01T05:35:38;10.30;;;3.88;;
56457;SDS011;42360;42.918;12.366;2022-08-01T05:38:03;20.55;;;2.95;;
56457;SDS011;42360;42.918;12.366;2022-08-01T05:40:30;17.52;;;2.78;;
56457;SDS011;42360;42.918;12.366;2022-08-01T05:42:56;8.65;;;2.22;;
56457;SDS011;42360;42.918;12.366;2022-08-01T05:45:21;5.90;;;2.17;;
56457;SDS011;42360;42.918;12.366;2022-08-01T05:47:47;13.43;;;2.55;;
56457;SDS011;42360;42.918;12.366;2022-08-01T05:50:13;10.27;;;2.40;;
56457;SDS011;42360;42.918;12.366;2022-08-01T05:52:39;10.80;;;2.90;;
56457;SDS011;42360;42.918;12.366;2022-08-01T05:55:05;10.00;;;3.13;;
56457;SDS011;42360;42.918;12.366;2022-08-01T05:57:31;8.80;;;3.28;;
56457;SDS011;42360;42.918;12.366;2022-08-01T05:59:56;18.88;;;3.58;;
56457;SDS011;42360;42.918;12.366;2022-08-01T06:02:22;12.27;;;3.10;;
56457;SDS011;42360;42.918;12.366;2022-08-01T06:04:48;12.25;;;2.80;;
56457;SDS011;42360;42.918;12.366;2022-08-01T06:07:13;12.85;;;3.10;;
56457;SDS011;42360;42.918;12.366;2022-08-01T06:09:39;12.23;;;3.10;;
56457;SDS011;42360;42.918;12.366;2022-08-01T06:12:04;10.93;;;3.17;;
56457;SDS011;42360;42.918;12.366;2022-08-01T06:14:30;7.43;;;2.22;;
56457;SDS011;42360;42.918;12.366;2022-08-01T06:16:56;8.88;;;2.58;;
56457;SDS011;42360;42.918;12.366;2022-08-01T06:19:22;1.92;;;1.83;;
56457;SDS011;42360;42.918;12.366;2022-08-01T06:21:47;3.60;;;1.85;;
56457;SDS011;42360;42.918;12.366;2022-08-01T06:24:13;7.95;;;2.35;;
56457;SDS011;42360;42.918;12.366;2022-08-01T06:26:39;6.78;;;2.15;;
56457;SDS011;42360;42.918;12.366;2022-08-01T06:29:04;2.58;;;2.08;;
56457;SDS011;42360;42.918;12.366;2022-08-01T06:31:30;3.63;;;2.03;;
56457;SDS011;42360;42.918;12.366;2022-08-01T06:33:56;3.70;;;2.20;;
56457;SDS011;42360;42.918;12.366;2022-08-01T06:36:22;2.10;;;1.90;;
56457;SDS011;42360;42.918;12.366;2022-08-01T06:38:48;2.03;;;1.90;;
56457;SDS011;42360;42.918;12.366;2022-08-01T06:41:13;2.28;;;1.58;;
56457;SDS011;42360;42.918;12.366;2022-08-01T06:43:39;3.28;;;1.88;;
56457;SDS011;42360;42.918;12.366;2022-08-01T06:46:04;3.13;;;1.77;;
56457;SDS011;42360;42.918;12.366;2022-08-01T06:48:30;2.20;;;1.95;;
56457;SDS011;42360;42.918;12.366;2022-08-01T06:50:56;5.07;;;2.10;;
56457;SDS011;42360;42.918;12.366;2022-08-01T06:53:34;2.13;;;2.03;;
56457;SDS011;42360;42.918;12.366;2022-08-01T06:56:03;4.10;;;2.10;;
56457;SDS011;42360;42.918;12.366;2022-08-01T06:58:29;3.08;;;2.00;;
56457;SDS011;42360;42.918;12.366;2022-08-01T07:00:55;4.10;;;1.92;;
56457;SDS011;42360;42.918;12.366;2022-08-01T07:03:20;2.05;;;1.65;;
56457;SDS011;42360;42.918;12.366;2022-08-01T07:05:46;2.58;;;1.90;;
56457;SDS011;42360;42.918;12.366;2022-08-01T07:08:11;5.40;;;2.13;;
56457;SDS011;42360;42.918;12.366;2022-08-01T07:10:37;3.30;;;1.90;;
56457;SDS011;42360;42.918;12.366;2022-08-01T07:13:02;3.05;;;1.92;;
56457;SDS011;42360;42.918;12.366;2022-08-01T07:15:28;2.13;;;2.00;;
56457;SDS011;42360;42.918;12.366;2022-08-01T07:17:53;1.98;;;1.80;;
56457;SDS011;42360;42.918;12.366;2022-08-01T07:20:19;2.97;;;1.77;;
56457;SDS011;42360;42.918;12.366;2022-08-01T07:22:45;2.63;;;1.77;;
56457;SDS011;42360;42.918;12.366;2022-08-01T07:25:10;2.03;;;1.60;;
56457;SDS011;42360;42.918;12.366;2022-08-01T07:27:36;6.97;;;1.92;;
56457;SDS011;42360;42.918;12.366;2022-08-01T07:30:03;2.35;;;1.55;;
56457;SDS011;42360;42.918;12.366;2022-08-01T07:32:29;2.40;;;2.22;;
56457;SDS011;42360;42.918;12.366;2022-08-01T07:34:55;2.83;;;2.10;;
56457;SDS011;42360;42.918;12.366;2022-08-01T07:37:21;3.65;;;2.03;;
56457;SDS011;42360;42.918;12.366;2022-08-01T07:39:49;2.05;;;1.90;;
56457;SDS011;42360;42.918;12.366;2022-08-01T07:42:15;1.52;;;1.42;;
56457;SDS011;42360;42.918;12.366;2022-08-01T07:44:40;4.78;;;1.63;;
56457;SDS011;42360;42.918;12.366;2022-08-01T07:47:06;1.92;;;1.60;;
56457;SDS011;42360;42.918;12.366;2022-08-01T07:49:32;1.80;;;1.70;;
56457;SDS011;42360;42.918;12.366;2022-08-01T07:51:58;2.25;;;1.77;;
56457;SDS011;42360;42.918;12.366;2022-08-01T07:54:23;2.17;;;1.60;;
56457;SDS011;42360;42.918;12.366;2022-08-01T07:56:50;1.85;;;1.65;;
56457;SDS011;42360;42.918;12.366;2022-08-01T07:59:16;1.52;;;1.38;;
56457;SDS011;42360;42.918;12.366;2022-08-01T08:01:47;1.77;;;1.40;;
56457;SDS011;42360;42.918;12.366;2022-08-01T08:04:14;1.67;;;1.55;;
56457;SDS011;42360;42.918;12.366;2022-08-01T08:06:40;1.85;;;1.63;;
56457;SDS011;42360;42.918;12.366;2022-08-01T08:09:06;4.55;;;1.50;;
56457;SDS011;42360;42.918;12.366;2022-08-01T08:11:32;3.65;;;1.40;;
56457;SDS011;42360;42.918;12.366;2022-08-01T08:13:59;2.75;;;1.33;;
56457;SDS011;42360;42.918;12.366;2022-08-01T08:16:24;3.22;;;1.58;;
56457;SDS011;42360;42.918;12.366;2022-08-01T08:18:51;2.65;;;1.27;;
56457;SDS011;42360;42.918;12.366;2022-08-01T08:21:17;1.75;;;1.13;;
56457;SDS011;42360;42.918;12.366;2022-08-01T08:23:42;4.45;;;1.40;;
56457;SDS011;42360;42.918;12.366;2022-08-01T08:26:27;7.85;;;1.55;;
56457;SDS011;42360;42.918;12.366;2022-08-01T08:28:52;3.45;;;1.50;;
56457;SDS011;42360;42.918;12.366;2022-08-01T08:31:18;6.95;;;2.17;;
56457;SDS011;42360;42.918;12.366;2022-08-01T08:33:43;5.65;;;1.70;;
56457;SDS011;42360;42.918;12.366;2022-08-01T08:36:09;3.97;;;1.30;;
56457;SDS011;42360;42.918;12.366;2022-08-01T08:38:36;3.97;;;1.42;;
56457;SDS011;42360;42.918;12.366;2022-08-01T08:41:02;2.08;;;1.42;;
56457;SDS011;42360;42.918;12.366;2022-08-01T08:43:27;3.63;;;1.50;;
56457;SDS011;42360;42.918;12.366;2022-08-01T08:45:53;3.20;;;1.60;;
56457;SDS011;42360;42.918;12.366;2022-08-01T08:48:19;1.40;;;1.23;;
56457;SDS011;42360;42.918;12.366;2022-08-01T08:50:44;1.20;;;1.10;;
56457;SDS011;42360;42.918;12.366;2022-08-01T08:53:11;1.08;;;1.05;;
56457;SDS011;42360;42.918;12.366;2022-08-01T08:55:39;2.08;;;1.30;;
56457;SDS011;42360;42.918;12.366;2022-08-01T08:58:09;2.10;;;1.50;;
56457;SDS011;42360;42.918;12.366;2022-08-01T09:00:39;3.53;;;1.25;;
56457;SDS011;42360;42.918;12.366;2022-08-01T09:03:05;1.65;;;1.05;;
56457;SDS011;42360;42.918;12.366;2022-08-01T09:05:31;4.45;;;1.10;;
56457;SDS011;42360;42.918;12.366;2022-08-01T09:07:57;1.90;;;1.20;;
56457;SDS011;42360;42.918;12.366;2022-08-01T09:10:22;1.52;;;1.23;;
56457;SDS011;42360;42.918;12.366;2022-08-01T09:15:44;1.10;;;1.00;;
56457;SDS011;42360;42.918;12.366;2022-08-01T09:18:28;1.35;;;1.00;;
56457;SDS011;42360;42.918;12.366;2022-08-01T09:21:08;1.17;;;1.08;;
56457;SDS011;42360;42.918;12.366;2022-08-01T09:23:35;2.05;;;1.00;;
56457;SDS011;42360;42.918;12.366;2022-08-01T09:26:05;0.90;;;0.90;;
56457;SDS011;42360;42.918;12.366;2022-08-01T09:28:32;2.03;;;1.23;;
56457;SDS011;42360;42.918;12.366;2022-08-01T09:30:58;1.00;;;0.90;;
56457;SDS011;42360;42.918;12.366;2022-08-01T09:33:24;1.30;;;1.20;;
56457;SDS011;42360;42.918;12.366;2022-08-01T09:35:56;0.88;;;0.88;;
56457;SDS011;42360;42.918;12.366;2022-08-01T09:38:23;0.90;;;0.90;;
56457;SDS011;42360;42.918;12.366;2022-08-01T09:40:52;0.90;;;0.90;;
56457;SDS011;42360;42.918;12.366;2022-08-01T09:43:19;1.23;;;0.93;;
56457;SDS011;42360;42.918;12.366;2022-08-01T09:45:46;1.77;;;0.88;;
56457;SDS011;42360;42.918;12.366;2022-08-01T09:48:12;1.77;;;0.90;;
56457;SDS011;42360;42.918;12.366;2022-08-01T09:50:38;1.15;;;0.80;;
56457;SDS011;42360;42.918;12.366;2022-08-01T09:53:05;3.20;;;1.27;;
56457;SDS011;42360;42.918;12.366;2022-08-01T09:55:31;4.13;;;1.50;;
56457;SDS011;42360;42.918;12.366;2022-08-01T09:57:57;3.17;;;1.02;;
56457;SDS011;42360;42.918;12.366;2022-08-01T10:00:26;3.30;;;0.90;;
56457;SDS011;42360;42.918;12.366;2022-08-01T10:02:52;0.90;;;0.90;;
56457;SDS011;42360;42.918;12.366;2022-08-01T10:05:17;1.00;;;0.90;;
56457;SDS011;42360;42.918;12.366;2022-08-01T10:07:56;1.25;;;0.93;;
56457;SDS011;42360;42.918;12.366;2022-08-01T10:10:23;2.67;;;1.17;;
56457;SDS011;42360;42.918;12.366;2022-08-01T10:12:49;2.35;;;1.00;;
56457;SDS011;42360;42.918;12.366;2022-08-01T10:15:17;2.05;;;1.10;;
56457;SDS011;42360;42.918;12.366;2022-08-01T10:17:56;2.70;;;1.00;;
56457;SDS011;42360;42.918;12.366;2022-08-01T10:20:32;2.28;;;1.20;;
56457;SDS011;42360;42.918;12.366;2022-08-01T10:22:59;3.22;;;1.02;;
56457;SDS011;42360;42.918;12.366;2022-08-01T10:25:33;2.55;;;1.00;;
56457;SDS011;42360;42.918;12.366;2022-08-01T10:28:01;2.63;;;1.23;;
56457;SDS011;42360;42.918;12.366;2022-08-01T10:30:31;3.20;;;1.02;;
56457;SDS011;42360;42.918;12.366;2022-08-01T10:32:57;2.05;;;1.00;;
56457;SDS011;42360;42.918;12.366;2022-08-01T10:35:23;0.90;;;0.90;;
56457;SDS011;42360;42.918;12.366;2022-08-01T10:37:49;0.88;;;0.88;;
56457;SDS011;42360;42.918;12.366;2022-08-01T10:40:16;1.85;;;1.10;;
56457;SDS011;42360;42.918;12.366;2022-08-01T10:42:43;1.42;;;0.90;;
56457;SDS011;42360;42.918;12.366;2022-08-01T10:45:10;1.58;;;1.20;;
56457;SDS011;42360;42.918;12.366;2022-08-01T10:47:42;2.95;;;1.05;;
56457;SDS011;42360;42.918;12.366;2022-08-01T10:53:08;1.75;;;1.27;;
56457;SDS011;42360;42.918;12.366;2022-08-01T11:03:42;1.45;;;1.15;;
56457;SDS011;42360;42.918;12.366;2022-08-01T11:06:17;2.25;;;1.08;;
56457;SDS011;42360;42.918;12.366;2022-08-01T11:08:53;1.17;;;1.00;;
56457;SDS011;42360;42.918;12.366;2022-08-01T11:11:20;1.30;;;1.20;;
56457;SDS011;42360;42.918;12.366;2022-08-01T11:16:33;1.17;;;0.85;;
56457;SDS011;42360;42.918;12.366;2022-08-01T11:19:00;0.98;;;0.98;;
56457;SDS011;42360;42.918;12.366;2022-08-01T11:27:16;5.72;;;1.25;;
56457;SDS011;42360;42.918;12.366;2022-08-01T11:29:42;1.20;;;1.10;;
56457;SDS011;42360;42.918;12.366;2022-08-01T11:32:24;1.83;;;1.02;;
56457;SDS011;42360;42.918;12.366;2022-08-01T11:34:54;1.63;;;1.20;;
56457;SDS011;42360;42.918;12.366;2022-08-01T11:42:44;2.53;;;1.00;;
56457;SDS011;42360;42.918;12.366;2022-08-01T11:45:10;1.10;;;1.00;;
56457;SDS011;42360;42.918;12.366;2022-08-01T11:47:46;1.45;;;1.10;;
56457;SDS011;42360;42.918;12.366;2022-08-01T11:53:00;2.55;;;0.95;;
56457;SDS011;42360;42.918;12.366;2022-08-01T11:55:30;1.20;;;1.05;;
56457;SDS011;42360;42.918;12.366;2022-08-01T11:57:59;1.20;;;0.95;;
56457;SDS011;42360;42.918;12.366;2022-08-01T12:00:26;1.20;;;0.98;;
56457;SDS011;42360;42.918;12.366;2022-08-01T12:03:02;1.17;;;1.10;;
56457;SDS011;42360;42.918;12.366;2022-08-01T12:05:29;1.20;;;1.10;;
56457;SDS011;42360;42.918;12.366;2022-08-01T12:07:56;0.98;;;0.98;;
56457;SDS011;42360;42.918;12.366;2022-08-01T12:10:23;0.85;;;0.85;;
56457;SDS011;42360;42.918;12.366;2022-08-01T12:12:54;1.20;;;1.10;;
56457;SDS011;42360;42.918;12.366;2022-08-01T12:15:23;0.90;;;0.90;;
56457;SDS011;42360;42.918;12.366;2022-08-01T12:17:56;1.20;;;1.10;;
56457;SDS011;42360;42.918;12.366;2022-08-01T12:20:23;1.10;;;0.90;;
56457;SDS011;42360;42.918;12.366;2022-08-01T12:22:56;0.80;;;0.80;;
56457;SDS011;42360;42.918;12.366;2022-08-01T12:25:23;1.92;;;1.00;;
56457;SDS011;42360;42.918;12.366;2022-08-01T12:27:49;1.17;;;0.90;;
56457;SDS011;42360;42.918;12.366;2022-08-01T12:30:16;1.40;;;0.80;;
56457;SDS011;42360;42.918;12.366;2022-08-01T12:32:44;0.90;;;0.90;;
56457;SDS011;42360;42.918;12.366;2022-08-01T12:35:15;0.70;;;0.70;;
56457;SDS011;42360;42.918;12.366;2022-08-01T12:37:49;0.98;;;0.90;;
56457;SDS011;42360;42.918;12.366;2022-08-01T12:40:24;1.15;;;1.00;;
56457;SDS011;42360;42.918;12.366;2022-08-01T12:42:55;0.85;;;0.85;;
56457;SDS011;42360;42.918;12.366;2022-08-01T12:45:27;1.23;;;0.90;;
56457;SDS011;42360;42.918;12.366;2022-08-01T12:47:55;1.25;;;0.80;;
56457;SDS011;42360;42.918;12.366;2022-08-01T12:50:26;1.05;;;0.88;;
56457;SDS011;42360;42.918;12.366;2022-08-01T12:52:54;1.25;;;1.13;;
56457;SDS011;42360;42.918;12.366;2022-08-01T12:55:21;0.80;;;0.80;;
56457;SDS011;42360;42.918;12.366;2022-08-01T12:57:49;1.00;;;0.90;;
56457;SDS011;42360;42.918;12.366;2022-08-01T13:00:28;3.78;;;1.10;;
56457;SDS011;42360;42.918;12.366;2022-08-01T13:03:07;1.00;;;0.93;;
56457;SDS011;42360;42.918;12.366;2022-08-01T13:05:40;1.17;;;0.90;;
56457;SDS011;42360;42.918;12.366;2022-08-01T13:08:09;2.67;;;1.05;;
56457;SDS011;42360;42.918;12.366;2022-08-01T13:10:41;1.00;;;0.90;;
56457;SDS011;42360;42.918;12.366;2022-08-01T13:13:08;2.05;;;0.90;;
56457;SDS011;42360;42.918;12.366;2022-08-01T13:15:35;1.00;;;0.90;;
56457;SDS011;42360;42.918;12.366;2022-08-01T13:20:50;0.85;;;0.85;;
56457;SDS011;42360;42.918;12.366;2022-08-01T13:23:31;0.82;;;0.82;;
56457;SDS011;42360;42.918;12.366;2022-08-01T13:25:57;1.35;;;0.77;;
56457;SDS011;42360;42.918;12.366;2022-08-01T13:28:23;1.13;;;0.77;;
56457;SDS011;42360;42.918;12.366;2022-08-01T13:30:58;1.88;;;1.00;;
56457;SDS011;42360;42.918;12.366;2022-08-01T13:33:26;1.42;;;1.00;;
56457;SDS011;42360;42.918;12.366;2022-08-01T13:35:53;0.80;;;0.80;;
56457;SDS011;42360;42.918;12.366;2022-08-01T13:38:20;1.77;;;1.05;;
56457;SDS011;42360;42.918;12.366;2022-08-01T13:41:06;1.10;;;0.98;;
56457;SDS011;42360;42.918;12.366;2022-08-01T13:43:33;1.90;;;0.90;;
56457;SDS011;42360;42.918;12.366;2022-08-01T13:46:00;1.15;;;1.05;;
56457;SDS011;42360;42.918;12.366;2022-08-01T13:48:29;0.95;;;0.90;;
56457;SDS011;42360;42.918;12.366;2022-08-01T13:50:55;0.90;;;0.90;;
56457;SDS011;42360;42.918;12.366;2022-08-01T13:53:20;2.58;;;1.02;;
56457;SDS011;42360;42.918;12.366;2022-08-01T13:55:46;0.90;;;0.90;;
56457;SDS011;42360;42.918;12.366;2022-08-01T13:58:11;1.40;;;1.10;;
56457;SDS011;42360;42.918;12.366;2022-08-01T14:00:37;1.08;;;0.98;;
56457;SDS011;42360;42.918;12.366;2022-08-01T14:03:03;1.27;;;0.90;;
56457;SDS011;42360;42.918;12.366;2022-08-01T14:05:28;0.90;;;0.90;;
56457;SDS011;42360;42.918;12.366;2022-08-01T14:07:55;2.50;;;1.10;;
56457;SDS011;42360;42.918;12.366;2022-08-01T14:10:20;1.85;;;0.88;;
56457;SDS011;42360;42.918;12.366;2022-08-01T14:12:49;0.85;;;0.77;;
56457;SDS011;42360;42.918;12.366;2022-08-01T14:15:15;1.02;;;0.90;;
56457;SDS011;42360;42.918;12.366;2022-08-01T14:17:41;1.85;;;0.80;;
56457;SDS011;42360;42.918;12.366;2022-08-01T14:20:07;0.90;;;0.90;;
56457;SDS011;42360;42.918;12.366;2022-08-01T14:22:33;0.80;;;0.80;;
56457;SDS011;42360;42.918;12.366;2022-08-01T14:24:58;0.85;;;0.80;;
56457;SDS011;42360;42.918;12.366;2022-08-01T14:27:24;0.80;;;0.80;;
56457;SDS011;42360;42.918;12.366;2022-08-01T14:29:50;1.48;;;1.00;;
56457;SDS011;42360;42.918;12.366;2022-08-01T14:32:16;0.93;;;0.90;;
56457;SDS011;42360;42.918;12.366;2022-08-01T14:34:43;1.48;;;0.93;;
56457;SDS011;42360;42.918;12.366;2022-08-01T14:37:09;2.72;;;0.82;;
56457;SDS011;42360;42.918;12.366;2022-08-01T14:39:35;2.75;;;1.00;;
56457;SDS011;42360;42.918;12.366;2022-08-01T14:42:00;1.00;;;1.00;;
56457;SDS011;42360;42.918;12.366;2022-08-01T14:44:26;0.93;;;0.90;;
56457;SDS011;42360;42.918;12.366;2022-08-01T14:46:52;1.08;;;0.98;;
56457;SDS011;42360;42.918;12.366;2022-08-01T14:49:17;1.88;;;0.90;;
56457;SDS011;42360;42.918;12.366;2022-08-01T14:51:43;1.52;;;1.00;;
56457;SDS011;42360;42.918;12.366;2022-08-01T14:54:08;1.38;;;0.90;;
56457;SDS011;42360;42.918;12.366;2022-08-01T14:56:34;1.13;;;1.10;;
56457;SDS011;42360;42.918;12.366;2022-08-01T14:59:00;1.05;;;0.80;;
56457;SDS011;42360;42.918;12.366;2022-08-01T15:01:25;1.08;;;1.00;;
56457;SDS011;42360;42.918;12.366;2022-08-01T15:03:51;2.63;;;0.90;;
56457;SDS011;42360;42.918;12.366;2022-08-01T15:06:17;0.80;;;0.80;;
56457;SDS011;42360;42.918;12.366;2022-08-01T15:08:43;1.35;;;1.00;;
56457;SDS011;42360;42.918;12.366;2022-08-01T15:11:09;0.95;;;0.95;;
56457;SDS011;42360;42.918;12.366;2022-08-01T15:13:35;1.00;;;1.00;;